Flight Track Log - Related Links

Times and Time Zones

All times are in EDT time to prevent confusion due to time zone crossing. See the N1250V flight status page for this flight to view local times or setup timezone preferences in your user account.

Time Position Orientation Groundspeed Altitude Reporting Facility
EDT Latitude Longitude Course Direction KTS MPH feet Rate Location/Type
Fri 10:03:02 AM 39.0833 -84.4167 195° South 152 175 1,200  Level Cincinnati TRACON
Fri 10:03:56 AM 39.0333 -84.4333 195° South 204 235 2,700 1,927 Climbing Cincinnati TRACON
Fri 10:04:51 AM 38.9833 -84.4667 207° Southwest 200 230 4,700 1,930 Climbing Cincinnati TRACON
Fri 10:05:51 AM 38.9333 -84.5000 207° Southwest 215 247 6,400 1,800 Climbing Cincinnati TRACON
Fri 10:06:51 AM 38.9500 -84.5667 288° West 211 243 8,300 1,846 Climbing Cincinnati TRACON
Fri 10:07:22 AM 38.9661 -84.5958 305° West 213 245 9,200 1,806 Climbing Indianapolis Center
Fri 10:08:24 AM 38.9936 -84.6592 299° West 204 235 11,100 1,597 Climbing Indianapolis Center
Fri 10:09:26 AM 39.0222 -84.7219 300° West 203 234 12,500 919 Climbing Indianapolis Center
Fri 10:10:28 AM 39.0422 -84.8000 288° West 228 262 13,000 532 Climbing Indianapolis Center
Fri 10:11:30 AM 39.0667 -84.8900 289° West 260 299 13,600 1,065 Climbing Indianapolis Center
Fri 10:12:32 AM 39.0956 -84.9919 290° West 258 297 15,200 1,258 Climbing Indianapolis Center
Fri 10:13:34 AM 39.1197 -85.0733 291° West 248 285 16,200 1,065 Climbing Indianapolis Center
Fri 10:14:36 AM 39.1422 -85.1561 289° West 247 284 17,400 1,016 Climbing Indianapolis Center
Fri 10:15:38 AM 39.1678 -85.2375 292° West 245 282 18,300 871 Climbing Indianapolis Center
Fri 10:16:40 AM 39.1897 -85.3231 288° West 250 288 19,200 968 Climbing Indianapolis Center
Fri 10:17:42 AM 39.2133 -85.4061 290° West 249 287 20,300 1,065 Climbing Indianapolis Center
Fri 10:18:44 AM 39.2411 -85.5094 289° West 255 293 21,400 919 Climbing Indianapolis Center
Fri 10:19:46 AM 39.2644 -85.5961 289° West 256 295 22,200 774 Climbing Indianapolis Center
Fri 10:20:48 AM 39.2886 -85.6853 289° West 263 303 23,000 732 Climbing Indianapolis Center
Fri 10:21:49 AM 39.3139 -85.7747 290° West 265 305 23,700 732 Climbing Indianapolis Center
Fri 10:22:51 AM 39.3156 -85.8683 271° West 261 300 24,500 774 Climbing Indianapolis Center
Fri 10:23:53 AM 39.3192 -85.9631 273° West 264 304 25,300 919 Climbing Indianapolis Center
Fri 10:24:55 AM 39.3211 -86.0744 271° West 259 298 26,400 1,016 Climbing Indianapolis Center
Fri 10:25:57 AM 39.3250 -86.1647 273° West 255 293 27,400 871 Climbing Indianapolis Center
Fri 10:26:59 AM 39.3258 -86.2542 271° West 250 288 28,200 726 Climbing Indianapolis Center
Fri 10:28:01 AM 39.3317 -86.3417 275° West 245 282 28,900 677 Climbing Indianapolis Center
Fri 10:29:03 AM 39.3331 -86.4300 271° West 245 282 29,600 683 Climbing Indianapolis Center
Fri 10:30:04 AM 39.3356 -86.5169 272° West 243 280 30,300 732 Climbing Indianapolis Center
Fri 10:31:06 AM 39.3386 -86.6017 273° West 239 275 31,100 629 Climbing Indianapolis Center
Fri 10:32:08 AM 39.3400 -86.6872 271° West 238 274 31,600 439 Climbing Indianapolis Center
Fri 10:33:09 AM 39.3436 -86.7919 273° West 243 280 32,000 195 Climbing Indianapolis Center
Fri 10:34:11 AM 39.3461 -86.8856 272° West 255 293 32,000 97 Level Indianapolis Center
Fri 10:35:13 AM 39.3492 -86.9839 272° West 272 313 32,200 195 Climbing Indianapolis Center
Fri 10:36:14 AM 39.3517 -87.0839 272° West 277 319 32,400 537 Climbing Indianapolis Center
Fri 10:37:16 AM 39.3511 -87.1786 270° West 269 310 33,300 634 Climbing Indianapolis Center
Fri 10:38:17 AM 39.3494 -87.2661 269° West 249 287 33,700 293 Climbing Indianapolis Center
Fri 10:39:19 AM 39.3500 -87.3572 270° West 252 290 33,900 146 Climbing Indianapolis Center
Fri 10:40:20 AM 39.3481 -87.4681 269° West 257 296 34,000 49 Climbing Indianapolis Center
Fri 10:41:22 AM 39.3206 -87.5592 249° West 270 311 34,000  Level Indianapolis Center
Fri 10:42:24 AM 39.2969 -87.6381 249° West 274 315 34,000  Level Indianapolis Center
Fri 10:43:25 AM 39.2672 -87.7536 252° West 282 325 34,000  Level Indianapolis Center
Fri 10:44:27 AM 39.2603 -87.8525 265° West 285 328 34,000  Level Indianapolis Center
Fri 10:45:28 AM 39.2575 -87.9564 268° West 289 333 34,000  Level Indianapolis Center
Fri 10:46:30 AM 39.2578 -88.0589 270° West 287 330 34,000  Level Indianapolis Center
Fri 10:47:31 AM 39.2578 -88.1636 270° West 289 333 34,000  Level Kansas City Center
Fri 10:48:33 AM 39.2564 -88.2681 269° West 293 337 34,000  Level Indianapolis Center
Fri 10:49:34 AM 39.2556 -88.3728 269° West 292 336 34,000  Level Indianapolis Center
Fri 10:50:38 AM 39.2539 -88.4986 269° West 291 335 34,000  Level Kansas City Center
Fri 10:51:40 AM 39.2517 -88.6025 268° West 290 334 34,000  Level Kansas City Center
Fri 10:52:42 AM 39.2506 -88.7097 269° West 292 336 34,000  Level Kansas City Center
Fri 10:53:44 AM 39.2497 -88.8131 269° West 289 333 34,000  Level Kansas City Center
Fri 10:54:46 AM 39.2483 -88.9169 269° West 290 334 34,000  Level Kansas City Center
Fri 10:55:48 AM 39.2483 -89.0211 270° West 291 335 34,000  Level Kansas City Center
Fri 10:56:50 AM 39.2453 -89.1253 268° West 291 335 34,000  Level Kansas City Center
Fri 10:57:52 AM 39.2439 -89.2306 269° West 294 338 34,000  Level Kansas City Center
Fri 10:58:54 AM 39.2414 -89.3550 269° West 292 336 34,000  Level Kansas City Center
Fri 10:59:56 AM 39.2392 -89.4597 268° West 292 336 34,000  Level Kansas City Center
Fri 11:00:58 AM 39.2372 -89.5639 269° West 292 336 34,000  Level Kansas City Center
Fri 11:02:00 AM 39.2353 -89.6683 269° West 294 338 34,000  Level Kansas City Center
Fri 11:03:02 AM 39.2344 -89.7728 269° West 293 337 34,000  Level Kansas City Center
Fri 11:04:04 AM 39.2314 -89.8994 268° West 294 338 34,000  Level Kansas City Center
Fri 11:05:06 AM 39.2289 -90.0053 268° West 296 341 34,000  Level Kansas City Center
Fri 11:06:08 AM 39.2250 -90.1111 267° West 297 342 34,000  Level Kansas City Center
Fri 11:07:10 AM 39.2233 -90.2183 269° West 300 345 34,000  Level Kansas City Center
Fri 11:08:12 AM 39.2206 -90.3253 268° West 300 345 34,000  Level Kansas City Center
Fri 11:09:14 AM 39.2172 -90.4542 268° West 302 348 34,000  Level Kansas City Center
Fri 11:10:16 AM 39.2139 -90.5597 268° West 299 344 34,000  Level Kansas City Center
Fri 11:11:18 AM 39.2108 -90.6658 268° West 298 343 34,000  Level Kansas City Center
Fri 11:12:20 AM 39.2083 -90.7692 268° West 293 337 34,000  Level Kansas City Center
Fri 11:13:22 AM 39.2050 -90.8756 268° West 296 341 34,000  Level Kansas City Center
Fri 11:14:24 AM 39.2022 -90.9819 268° West 298 343 34,000  Level Kansas City Center
Fri 11:15:27 AM 39.1961 -91.1092 266° West 298 343 34,000  Level Kansas City Center
Fri 11:16:29 AM 39.1922 -91.2150 267° West 298 343 34,000  Level Kansas City Center
Fri 11:17:31 AM 39.1889 -91.3222 268° West 299 344 34,000  Level Kansas City Center
Fri 11:18:33 AM 39.1856 -91.4294 268° West 300 345 34,000  Level Kansas City Center
Fri 11:19:35 AM 39.1819 -91.5372 268° West 301 346 34,000  Level Kansas City Center
Fri 11:20:37 AM 39.1764 -91.6644 267° West 299 344 34,000  Level Kansas City Center
Fri 11:21:39 AM 39.1722 -91.7736 267° West 299 344 34,000  Level Kansas City Center
Fri 11:22:41 AM 39.1672 -91.8822 267° West 301 346 34,000  Level Kansas City Center
Fri 11:23:43 AM 39.1644 -91.9925 268° West 303 349 34,000  Level Kansas City Center
Fri 11:24:45 AM 39.1583 -92.1008 266° West 304 350 34,000  Level Kansas City Center
Fri 11:25:47 AM 39.1542 -92.2083 267° West 303 349 34,000  Level Kansas City Center
Fri 11:26:49 AM 39.1478 -92.3392 266° West 303 349 34,000  Level Kansas City Center
Fri 11:27:51 AM 39.1431 -92.4492 267° West 306 352 34,000  Level Kansas City Center
Fri 11:28:53 AM 39.1381 -92.5617 267° West 311 358 34,000  Level Kansas City Center
Fri 11:29:55 AM 39.1322 -92.6719 266° West 311 358 34,000  Level Kansas City Center
Fri 11:30:57 AM 39.1275 -92.7869 267° West 313 360 34,000  Level Kansas City Center
Fri 11:31:59 AM 39.1217 -92.8992 266° West 315 362 34,000  Level Kansas City Center
Fri 11:33:01 AM 39.1158 -93.0100 266° West 313 360 34,000  Level Kansas City Center
Fri 11:34:03 AM 39.1094 -93.1439 267° West 314 361 34,000  Level Kansas City Center
Fri 11:35:05 AM 39.1036 -93.2553 266° West 314 361 34,000  Level Kansas City Center
Fri 11:36:07 AM 39.0978 -93.3661 266° West 314 361 34,000  Level Kansas City Center
Fri 11:37:09 AM 39.0922 -93.4761 266° West 312 359 34,000  Level Kansas City Center
Fri 11:38:11 AM 39.0844 -93.6019 265° West 313 360 34,000  Level Kansas City Center
Fri 11:39:13 AM 39.0783 -93.7183 266° West 313 360 34,000  Level Kansas City Center
Fri 11:40:15 AM 39.0722 -93.8369 266° West 318 366 34,000  Level Kansas City Center
Fri 11:41:17 AM 39.0656 -93.9458 266° West 318 366 34,000  Level Kansas City Center
Fri 11:42:19 AM 39.0583 -94.0722 266° West 319 367 34,000  Level Kansas City Center
Fri 11:43:21 AM 39.0519 -94.1811 266° West 318 366 34,000  Level Kansas City Center
Fri 11:44:24 AM 39.0442 -94.3086 266° West 321 369 34,000  Level Kansas City Center
Fri 11:45:26 AM 39.0378 -94.4164 266° West 317 365 34,000  Level Kansas City Center
Fri 11:46:28 AM 39.0292 -94.5433 265° West 317 365 34,000  Level Kansas City Center
Fri 11:47:30 AM 39.0219 -94.6511 265° West 317 365 34,000  Level Kansas City Center
Fri 11:48:32 AM 39.0153 -94.7597 266° West 317 365 34,000  Level Kansas City Center
Fri 11:49:34 AM 39.0069 -94.8850 265° West 315 362 34,000  Level Kansas City Center
Fri 11:50:36 AM 38.9997 -94.9922 265° West 314 361 34,000 -387 Level Kansas City Center
Fri 11:51:38 AM 38.9914 -95.1206 265° West 319 367 33,200 -1,016 Descending Kansas City Center
Fri 11:52:40 AM 38.9825 -95.2406 265° West 347 399 31,900 -1,597 Descending Kansas City Center
Fri 11:53:42 AM 38.9731 -95.3919 265° West 376 433 29,900 -1,548 Descending Kansas City Center
Fri 11:54:44 AM 38.9633 -95.5244 265° West 385 443 28,700 -1,161 Descending Kansas City Center
Fri 11:55:46 AM 38.9536 -95.6533 264° West 381 438 27,500 -1,306 Descending Kansas City Center
Fri 11:56:48 AM 38.9431 -95.8058 265° West 382 440 26,000 -1,258 Descending Kansas City Center
Fri 11:57:50 AM 38.9336 -95.9344 265° West 377 434 24,900 -1,500 Descending Kansas City Center
Fri 11:58:52 AM 38.9231 -96.0744 265° West 355 409 22,900 -1,548 Descending Kansas City Center
Fri 11:59:54 AM 38.9142 -96.1931 265° West 350 403 21,700 -1,210 Descending Kansas City Center
Fri 12:00:56 PM 38.9025 -96.3294 264° West 345 397 20,400 -1,258 Descending Kansas City Center
Fri 12:01:58 PM 38.8942 -96.4478 265° West 347 399 19,100 -1,258 Descending Kansas City Center
Fri 12:03:00 PM 38.8839 -96.5625 263° West 335 386 17,800 -1,258 Descending Kansas City Center
Fri 12:04:02 PM 38.8756 -96.6758 265° West 323 372 16,500 -1,403 Descending Kansas City Center
Fri 12:05:04 PM 38.8650 -96.7972 264° West 301 346 14,900 -1,548 Descending Kansas City Center
Fri 12:06:06 PM 38.8556 -96.9086 264° West 300 345 13,300 -1,548 Descending Kansas City Center
Fri 12:07:08 PM 38.8461 -97.0214 264° West 303 349 11,700 -1,824 Descending Kansas City Center
Fri 12:08:11 PM 38.8367 -97.1333 264° West 303 349 9,500 -2,064 Descending Kansas City Center
Fri 12:09:13 PM 38.8267 -97.2467 264° West 306 352 7,400 -1,984 Descending Kansas City Center
Fri 12:10:15 PM 38.8161 -97.3497 263° West 281 323 5,400 -2,032 Descending Kansas City Center
Fri 12:11:17 PM 38.8075 -97.4453 263° West 261 300 3,200 -1,065 Descending Kansas City Center
Fri 12:12:19 PM 38.8019 -97.5206 265° West 223 257 3,200 -145 Level Kansas City Center
Fri 12:13:21 PM 38.7814 -97.5825 247° West 185 213 2,900 -435 Descending Kansas City Center
Fri 12:14:23 PM 38.7492 -97.6183 221° Southwest 143 165 2,300 -484 Descending Kansas City Center
Fri 12:15:25 PM 38.7639 -97.6478 303° West 126 145 1,900 -387 Descending Kansas City Center

Login

Don't have an account? Register now (free) for customized features, flight alerts, and more!